createdAt,value
2018-06-16T00:01:05.880Z,19.43
2018-06-16T00:03:34.020Z,18.80
2018-06-16T00:06:02.209Z,17.60
2018-06-16T00:08:30.418Z,22.00
2018-06-16T00:10:58.534Z,16.97
2018-06-16T00:13:26.635Z,17.50
2018-06-16T00:15:54.846Z,21.63
2018-06-16T00:18:23.006Z,19.20
2018-06-16T00:20:51.128Z,24.30
2018-06-16T00:23:19.260Z,23.43
2018-06-16T00:25:47.397Z,20.93
2018-06-16T00:28:15.541Z,18.20
2018-06-16T00:30:43.651Z,21.17
2018-06-16T00:33:11.784Z,21.80
2018-06-16T00:35:39.928Z,21.33
2018-06-16T00:38:08.095Z,20.70
2018-06-16T00:40:36.407Z,19.57
2018-06-16T00:43:04.507Z,19.77
2018-06-16T00:45:32.689Z,21.27
2018-06-16T00:48:00.860Z,24.10
2018-06-16T00:50:35.824Z,17.53
2018-06-16T00:53:03.883Z,18.73
2018-06-16T00:55:32.068Z,16.33
2018-06-16T00:58:00.261Z,18.93
2018-06-16T01:00:28.488Z,17.87
2018-06-16T01:02:56.640Z,17.07
2018-06-16T01:05:24.849Z,23.73
2018-06-16T01:07:53.089Z,20.60
2018-06-16T01:10:21.287Z,17.40
2018-06-16T01:12:49.475Z,18.43
2018-06-16T01:15:17.596Z,17.40
2018-06-16T01:17:45.755Z,22.90
2018-06-16T01:20:13.898Z,17.30
2018-06-16T01:22:42.085Z,18.83
2018-06-16T01:25:10.221Z,21.42
2018-06-16T01:27:38.410Z,19.60
2018-06-16T01:30:06.581Z,20.17
2018-06-16T01:32:34.792Z,19.02
2018-06-16T01:35:03.052Z,22.90
2018-06-16T01:37:31.190Z,20.63
2018-06-16T01:39:59.304Z,18.77
2018-06-16T01:42:27.451Z,22.90
2018-06-16T01:44:55.613Z,19.40
2018-06-16T01:47:23.771Z,21.47
2018-06-16T01:49:51.902Z,21.45
2018-06-16T01:52:20.102Z,24.70
2018-06-16T01:54:48.190Z,20.30
2018-06-16T01:57:16.370Z,19.37
2018-06-16T01:59:44.634Z,21.70
2018-06-16T02:02:12.853Z,26.25
2018-06-16T02:04:41.088Z,21.60
2018-06-16T02:07:09.199Z,20.72
2018-06-16T02:09:37.381Z,20.72
2018-06-16T02:12:05.531Z,21.97
2018-06-16T02:14:33.750Z,20.35
2018-06-16T02:17:01.971Z,18.82
2018-06-16T02:19:30.566Z,18.32
2018-06-16T02:21:58.754Z,20.88
2018-06-16T02:24:26.899Z,19.02
2018-06-16T02:26:55.064Z,19.07
2018-06-16T02:29:23.250Z,22.93
2018-06-16T02:31:51.452Z,19.87
2018-06-16T02:34:19.590Z,19.13
2018-06-16T02:36:47.691Z,23.77
2018-06-16T02:39:15.847Z,22.75
2018-06-16T02:41:44.224Z,15.90
2018-06-16T02:44:12.341Z,19.83
2018-06-16T02:46:40.490Z,19.10
2018-06-16T02:49:08.659Z,19.63
2018-06-16T02:51:36.803Z,16.45
2018-06-16T02:54:04.948Z,19.32
2018-06-16T02:56:33.011Z,21.17
2018-06-16T02:59:01.135Z,19.80
2018-06-16T03:01:29.325Z,19.77
2018-06-16T03:03:57.479Z,22.55
2018-06-16T03:06:25.609Z,20.45
2018-06-16T03:08:53.807Z,17.48
2018-06-16T03:11:21.931Z,22.60
2018-06-16T03:13:50.214Z,17.50
2018-06-16T03:16:18.348Z,21.15
2018-06-16T03:18:47.363Z,19.62
2018-06-16T03:21:15.537Z,21.42
2018-06-16T03:23:43.637Z,18.20
2018-06-16T03:26:11.696Z,18.42
2018-06-16T03:28:39.827Z,20.72
2018-06-16T03:31:07.935Z,16.85
2018-06-16T03:33:36.142Z,19.12
2018-06-16T03:36:04.313Z,18.82
2018-06-16T03:38:32.431Z,20.88
2018-06-16T03:41:00.549Z,15.83
2018-06-16T03:43:28.706Z,19.65
2018-06-16T03:45:56.828Z,23.75
2018-06-16T03:48:24.939Z,22.82
2018-06-16T03:50:53.151Z,19.12
2018-06-16T03:53:21.316Z,21.20
2018-06-16T03:55:49.452Z,21.42
2018-06-16T03:58:17.604Z,18.60
2018-06-16T04:00:45.838Z,20.37
2018-06-16T04:03:14.037Z,23.47
2018-06-16T04:05:42.187Z,16.75
2018-06-16T04:08:10.323Z,24.60
2018-06-16T04:10:38.470Z,20.55
2018-06-16T04:13:06.581Z,23.95
2018-06-16T04:15:34.815Z,15.08
2018-06-16T04:18:03.032Z,22.73
2018-06-16T04:20:31.209Z,19.17
2018-06-16T04:22:59.347Z,20.17
2018-06-16T04:25:27.492Z,16.90
2018-06-16T04:27:55.663Z,18.95
2018-06-16T04:30:23.844Z,24.17
2018-06-16T04:32:51.994Z,19.37
2018-06-16T04:35:20.116Z,19.25
2018-06-16T04:37:48.226Z,14.40
2018-06-16T04:40:16.383Z,28.45
2018-06-16T04:42:44.541Z,22.60
2018-06-16T04:45:12.760Z,19.55
2018-06-16T04:47:40.927Z,16.65
2018-06-16T04:50:09.094Z,22.83
2018-06-16T04:52:37.205Z,19.17
2018-06-16T04:55:05.396Z,15.50
2018-06-16T04:57:33.470Z,19.25
2018-06-16T05:00:01.690Z,17.37
2018-06-16T05:02:29.939Z,21.70
2018-06-16T05:04:58.138Z,18.77
2018-06-16T05:07:26.389Z,16.87
2018-06-16T05:09:54.545Z,17.90
2018-06-16T05:12:22.691Z,18.10
2018-06-16T05:14:50.955Z,26.73
2018-06-16T05:17:19.189Z,16.83
2018-06-16T05:19:47.295Z,18.03
2018-06-16T05:22:15.475Z,17.67
2018-06-16T05:24:43.670Z,17.80
2018-06-16T05:27:11.814Z,25.00
2018-06-16T05:29:39.995Z,18.63
2018-06-16T05:32:08.283Z,20.97
2018-06-16T05:34:36.464Z,17.00
2018-06-16T05:37:04.664Z,18.80
2018-06-16T05:39:32.869Z,19.03
2018-06-16T05:42:01.749Z,16.97
2018-06-16T05:44:30.905Z,15.70
2018-06-16T05:46:59.087Z,15.40
2018-06-16T05:49:27.272Z,24.00
2018-06-16T05:51:55.511Z,17.70
2018-06-16T05:54:23.727Z,17.03
2018-06-16T05:56:51.862Z,18.70
2018-06-16T05:59:19.972Z,21.67
2018-06-16T06:01:48.098Z,23.67
2018-06-16T06:04:16.272Z,17.10
2018-06-16T06:06:44.442Z,19.80
2018-06-16T06:09:12.671Z,14.77
2018-06-16T06:11:40.816Z,13.13
2018-06-16T06:14:09.524Z,19.70
2018-06-16T06:16:38.189Z,16.10
2018-06-16T06:19:06.364Z,17.50
2018-06-16T06:21:34.548Z,18.50
2018-06-16T06:24:02.768Z,21.30
2018-06-16T06:26:30.877Z,23.93
2018-06-16T06:28:59.019Z,18.97
2018-06-16T06:31:27.175Z,15.57
2018-06-16T06:33:55.460Z,22.83
2018-06-16T06:36:23.686Z,15.97
2018-06-16T06:38:52.012Z,17.30
2018-06-16T06:41:20.291Z,20.40
2018-06-16T06:43:48.684Z,19.90
2018-06-16T06:46:16.842Z,18.97
2018-06-16T06:48:44.949Z,19.63
2018-06-16T06:51:13.168Z,18.50
2018-06-16T06:53:41.440Z,22.17
2018-06-16T06:56:09.630Z,16.20
2018-06-16T06:58:38.397Z,15.90
2018-06-16T07:03:40.092Z,15.83
2018-06-16T07:06:08.413Z,17.60
2018-06-16T07:08:36.654Z,17.77
2018-06-16T07:11:04.789Z,19.50
2018-06-16T07:13:33.039Z,16.10
2018-06-16T07:16:01.285Z,14.80
2018-06-16T07:18:30.529Z,18.13
2018-06-16T07:20:58.751Z,15.60
2018-06-16T07:23:27.016Z,12.67
2018-06-16T07:25:55.174Z,16.50
2018-06-16T07:28:23.415Z,15.57
2018-06-16T07:30:51.567Z,16.50
2018-06-16T07:33:20.452Z,15.10
2018-06-16T07:35:48.595Z,16.03
2018-06-16T07:38:16.715Z,13.87
2018-06-16T07:40:44.855Z,16.10
2018-06-16T07:43:13.031Z,14.70
2018-06-16T07:45:42.089Z,12.33
2018-06-16T07:48:10.288Z,14.20
2018-06-16T07:50:38.419Z,11.90
2018-06-16T07:53:06.610Z,14.93
2018-06-16T07:55:34.752Z,13.30
2018-06-16T07:58:02.920Z,16.67
2018-06-16T08:00:31.192Z,12.03
2018-06-16T08:02:59.332Z,15.77
2018-06-16T08:05:27.567Z,16.30
2018-06-16T08:07:55.906Z,12.30
2018-06-16T08:10:24.114Z,13.07
2018-06-16T08:12:52.328Z,9.47
2018-06-16T08:15:20.550Z,12.97
2018-06-16T08:17:48.720Z,12.83
2018-06-16T08:20:16.949Z,8.87
2018-06-16T08:22:45.143Z,8.83
2018-06-16T08:25:13.424Z,7.87
2018-06-16T08:27:41.631Z,7.40
2018-06-16T08:30:09.766Z,8.03
2018-06-16T08:32:37.940Z,6.83
2018-06-16T08:35:06.155Z,6.43
2018-06-16T08:37:34.548Z,7.00
2018-06-16T08:40:02.870Z,9.43
2018-06-16T08:42:31.200Z,6.77
2018-06-16T08:44:59.355Z,6.90
2018-06-16T08:47:27.580Z,8.60
2018-06-16T08:49:55.694Z,6.13
2018-06-16T08:52:23.909Z,7.40
2018-06-16T08:54:52.156Z,6.63
2018-06-16T08:57:20.434Z,7.20
2018-06-16T08:59:48.668Z,8.10
2018-06-16T09:02:16.930Z,9.90
2018-06-16T09:04:45.146Z,5.00
2018-06-16T09:07:13.413Z,8.53
2018-06-16T09:09:41.588Z,9.67
2018-06-16T09:12:19.538Z,7.53
2018-06-16T09:14:48.752Z,6.90
2018-06-16T09:17:17.057Z,10.30
2018-06-16T09:19:49.735Z,5.90
2018-06-16T09:22:17.937Z,7.07
2018-06-16T09:24:46.056Z,7.20
2018-06-16T09:27:15.400Z,6.60
2018-06-16T09:29:43.567Z,9.87
2018-06-16T09:32:11.740Z,7.00
2018-06-16T09:34:40.044Z,7.13
2018-06-16T09:37:08.372Z,5.57
2018-06-16T09:39:36.558Z,9.13
2018-06-16T09:42:04.805Z,5.60
2018-06-16T09:44:32.937Z,4.80
2018-06-16T09:47:01.170Z,9.77
2018-06-16T09:49:29.302Z,6.77
2018-06-16T09:51:57.402Z,5.70
2018-06-16T09:54:25.598Z,8.10
2018-06-16T09:56:53.840Z,7.40
2018-06-16T09:59:22.023Z,5.70
2018-06-16T10:01:50.353Z,5.07
2018-06-16T10:04:18.556Z,7.60
2018-06-16T10:06:46.799Z,5.30
2018-06-16T10:09:14.993Z,6.70
2018-06-16T10:11:43.329Z,5.13
2018-06-16T10:14:11.563Z,4.90
2018-06-16T10:16:39.884Z,4.90
2018-06-16T10:19:08.041Z,6.77
2018-06-16T10:21:36.183Z,5.77
2018-06-16T10:24:04.524Z,6.43
2018-06-16T10:26:32.732Z,5.43
2018-06-16T10:29:00.953Z,10.80
2018-06-16T10:31:29.102Z,7.30
2018-06-16T10:33:57.362Z,13.33
2018-06-16T10:36:25.554Z,9.83
2018-06-16T10:38:53.723Z,6.20
2018-06-16T10:41:21.838Z,6.10
2018-06-16T10:43:50.001Z,5.87
2018-06-16T10:46:18.152Z,8.10
2018-06-16T10:48:46.390Z,5.17
2018-06-16T10:51:14.674Z,8.77
2018-06-16T10:53:42.938Z,10.67
2018-06-16T10:56:11.204Z,6.17
2018-06-16T10:58:39.419Z,7.23
2018-06-16T11:01:07.595Z,8.20
2018-06-16T11:03:35.885Z,10.07
2018-06-16T11:06:04.048Z,9.30
2018-06-16T11:08:32.282Z,9.13
2018-06-16T11:11:00.451Z,5.47
2018-06-16T11:13:28.734Z,5.90
2018-06-16T11:15:57.028Z,6.13
2018-06-16T11:18:25.940Z,6.63
2018-06-16T11:20:54.294Z,8.63
2018-06-16T11:23:22.500Z,6.70
2018-06-16T11:25:50.716Z,4.80
2018-06-16T11:28:18.960Z,6.23
2018-06-16T11:30:47.145Z,8.87
2018-06-16T11:33:15.431Z,5.83
2018-06-16T11:35:43.739Z,8.03
2018-06-16T11:38:11.956Z,7.10
2018-06-16T11:40:40.187Z,10.07
2018-06-16T11:43:08.413Z,6.20
2018-06-16T11:45:36.696Z,6.10
2018-06-16T11:48:05.227Z,5.77
2018-06-16T11:50:33.697Z,5.57
2018-06-16T11:53:01.922Z,6.10
2018-06-16T11:55:30.117Z,6.70
2018-06-16T11:57:58.332Z,5.33
2018-06-16T12:00:26.592Z,7.30
2018-06-16T12:02:54.693Z,7.77
2018-06-16T12:05:22.924Z,6.53
2018-06-16T12:07:51.261Z,6.40
2018-06-16T12:10:19.429Z,6.43
2018-06-16T12:12:47.592Z,6.97
2018-06-16T12:15:15.765Z,6.07
2018-06-16T12:17:43.945Z,10.43
2018-06-16T12:20:12.155Z,7.97
2018-06-16T12:22:40.323Z,10.33
2018-06-16T12:25:08.713Z,8.07
2018-06-16T12:27:36.935Z,7.93
2018-06-16T12:30:05.382Z,7.20
2018-06-16T12:32:33.613Z,7.40
2018-06-16T12:35:01.717Z,7.97
2018-06-16T12:37:30.060Z,7.03
2018-06-16T12:39:58.325Z,8.27
2018-06-16T12:42:26.519Z,9.53
2018-06-16T12:44:54.743Z,6.13
2018-06-16T12:47:22.949Z,8.70
2018-06-16T12:49:51.115Z,9.20
2018-06-16T12:52:19.327Z,5.60
2018-06-16T12:54:47.517Z,9.00
2018-06-16T12:57:15.816Z,6.57
2018-06-16T12:59:44.094Z,7.27
2018-06-16T13:02:12.330Z,8.63
2018-06-16T13:04:40.774Z,6.47
2018-06-16T13:07:08.928Z,7.03
2018-06-16T13:09:37.148Z,7.43
2018-06-16T13:12:05.465Z,7.50
2018-06-16T13:14:33.628Z,8.60
2018-06-16T13:17:01.960Z,7.50
2018-06-16T13:19:30.124Z,14.30
2018-06-16T13:21:58.363Z,7.40
2018-06-16T13:24:26.537Z,8.03
2018-06-16T13:26:54.753Z,8.43
2018-06-16T13:29:22.915Z,7.50
2018-06-16T13:31:51.267Z,9.47
2018-06-16T13:34:19.443Z,8.37
2018-06-16T13:36:47.645Z,7.63
2018-06-16T13:39:15.854Z,7.00
2018-06-16T13:41:43.939Z,9.40
2018-06-16T13:44:12.103Z,11.30
2018-06-16T13:46:40.351Z,6.57
2018-06-16T13:49:08.510Z,8.57
2018-06-16T13:51:36.711Z,6.50
2018-06-16T13:54:05.152Z,9.87
2018-06-16T13:56:33.427Z,13.90
2018-06-16T13:59:01.637Z,16.83
2018-06-16T14:01:29.907Z,10.03
2018-06-16T14:03:58.149Z,9.00
2018-06-16T14:06:26.336Z,10.33
2018-06-16T14:08:54.552Z,15.63
2018-06-16T14:11:22.743Z,17.97
2018-06-16T14:13:50.976Z,9.27
2018-06-16T14:16:19.200Z,7.60
2018-06-16T14:18:47.362Z,9.30
2018-06-16T14:21:15.624Z,7.43
2018-06-16T14:23:43.895Z,6.00
2018-06-16T14:26:12.121Z,7.60
2018-06-16T14:28:40.294Z,7.53
2018-06-16T14:31:08.604Z,8.53
2018-06-16T14:33:36.859Z,8.13
2018-06-16T14:36:05.649Z,8.97
2018-06-16T14:38:33.883Z,14.20
2018-06-16T14:41:02.150Z,8.10
2018-06-16T14:43:30.342Z,7.17
2018-06-16T14:45:58.586Z,8.57
2018-06-16T14:48:26.761Z,7.70
2018-06-16T14:50:55.225Z,6.80
2018-06-16T14:53:23.396Z,10.70
2018-06-16T14:55:51.707Z,6.93
2018-06-16T14:58:24.088Z,9.40
2018-06-16T15:00:52.535Z,7.37
2018-06-16T15:03:20.895Z,8.10
2018-06-16T15:05:49.176Z,8.50
2018-06-16T15:08:17.480Z,7.20
2018-06-16T15:10:45.705Z,7.33
2018-06-16T15:13:13.999Z,8.30
2018-06-16T15:15:42.151Z,8.57
2018-06-16T15:18:10.387Z,7.47
2018-06-16T15:20:38.725Z,7.17
2018-06-16T15:23:07.100Z,5.97
2018-06-16T15:25:35.786Z,9.67
2018-06-16T15:28:04.072Z,8.77
2018-06-16T15:30:32.235Z,8.33
2018-06-16T15:33:00.433Z,8.23
2018-06-16T15:35:29.528Z,9.10
2018-06-16T15:37:57.741Z,9.53
2018-06-16T15:40:26.142Z,7.10
2018-06-16T15:42:55.069Z,8.67
2018-06-16T15:45:23.268Z,8.23
2018-06-16T15:47:51.559Z,7.50
2018-06-16T15:50:19.775Z,6.30
2018-06-16T15:52:48.380Z,7.80
2018-06-16T15:55:16.602Z,9.00
2018-06-16T15:57:44.752Z,8.43
2018-06-16T16:00:12.939Z,7.60
2018-06-16T16:02:41.112Z,6.43
2018-06-16T16:05:09.336Z,11.53
2018-06-16T16:07:38.250Z,9.93
2018-06-16T16:10:06.446Z,8.60
2018-06-16T16:12:34.683Z,10.17
2018-06-16T16:15:02.956Z,11.53
2018-06-16T16:17:31.157Z,9.87
2018-06-16T16:19:59.368Z,9.63
2018-06-16T16:22:27.526Z,7.40
2018-06-16T16:24:55.744Z,7.57
2018-06-16T16:27:24.190Z,8.10
2018-06-16T16:29:52.424Z,9.03
2018-06-16T16:32:20.608Z,8.23
2018-06-16T16:34:48.757Z,6.50
2018-06-16T16:37:16.947Z,6.27
2018-06-16T16:39:45.336Z,10.30
2018-06-16T16:42:13.607Z,8.10
2018-06-16T16:44:41.886Z,16.47
2018-06-16T16:47:10.102Z,14.03
2018-06-16T16:49:40.452Z,10.67
2018-06-16T16:52:08.751Z,7.30
2018-06-16T16:54:37.787Z,41.33
2018-06-16T16:57:06.155Z,32.57
2018-06-16T16:59:34.318Z,22.07
2018-06-16T17:02:02.720Z,11.87
2018-06-16T17:04:30.873Z,8.50
2018-06-16T17:06:58.962Z,8.00
2018-06-16T17:09:27.119Z,7.90
2018-06-16T17:11:55.355Z,9.97
2018-06-16T17:14:23.532Z,6.50
2018-06-16T17:16:51.699Z,7.40
2018-06-16T17:19:19.973Z,7.97
2018-06-16T17:21:48.147Z,10.00
2018-06-16T17:24:16.293Z,8.17
2018-06-16T17:26:44.595Z,8.90
2018-06-16T17:29:12.667Z,7.50
2018-06-16T17:31:40.917Z,7.00
2018-06-16T17:34:09.157Z,9.60
2018-06-16T17:36:37.446Z,10.20
2018-06-16T17:39:08.921Z,11.30
2018-06-16T17:41:37.040Z,10.13
2018-06-16T17:44:05.131Z,8.30
2018-06-16T17:46:33.291Z,7.30
2018-06-16T17:49:01.438Z,9.90
2018-06-16T17:51:29.643Z,9.03
2018-06-16T17:53:57.932Z,9.77
2018-06-16T17:56:26.129Z,7.03
2018-06-16T17:58:54.299Z,9.67
2018-06-16T18:01:23.429Z,8.60
2018-06-16T18:03:51.584Z,8.20
2018-06-16T18:06:20.437Z,11.23
2018-06-16T18:08:48.615Z,7.50
2018-06-16T18:11:16.745Z,8.50
2018-06-16T18:13:44.956Z,8.47
2018-06-16T18:16:13.160Z,7.40
2018-06-16T18:18:41.284Z,8.67
2018-06-16T18:21:09.557Z,13.10
2018-06-16T18:23:37.820Z,17.53
2018-06-16T18:26:05.982Z,9.67
2018-06-16T18:28:34.078Z,8.63
2018-06-16T18:31:02.288Z,8.00
2018-06-16T18:33:30.512Z,12.03
2018-06-16T18:35:58.647Z,7.67
2018-06-16T18:38:27.058Z,9.60
2018-06-16T18:40:55.323Z,9.03
2018-06-16T18:43:23.504Z,9.60
2018-06-16T18:45:51.659Z,9.40
2018-06-16T18:48:19.911Z,9.03
2018-06-16T18:50:48.074Z,14.27
2018-06-16T18:53:17.307Z,11.20
2018-06-16T18:55:45.591Z,16.53
2018-06-16T18:58:13.968Z,20.10
2018-06-16T19:00:42.236Z,11.40
2018-06-16T19:03:10.345Z,11.63
2018-06-16T19:05:39.252Z,7.53
2018-06-16T19:08:07.496Z,9.33
2018-06-16T19:10:36.536Z,13.07
2018-06-16T19:13:04.746Z,9.33
2018-06-16T19:15:32.987Z,7.90
2018-06-16T19:18:01.140Z,9.30
2018-06-16T19:20:29.566Z,7.97
2018-06-16T19:22:57.814Z,9.73
2018-06-16T19:25:26.155Z,9.80
2018-06-16T19:27:54.433Z,10.67
2018-06-16T19:30:22.697Z,12.43
2018-06-16T19:32:51.103Z,11.67
2018-06-16T19:35:19.330Z,11.63
2018-06-16T19:37:47.471Z,13.10
2018-06-16T19:40:15.856Z,12.13
2018-06-16T19:42:44.094Z,13.17
2018-06-16T19:45:12.266Z,13.97
2018-06-16T19:47:40.549Z,14.00
2018-06-16T19:50:08.784Z,14.03
2018-06-16T19:52:37.013Z,15.60
2018-06-16T19:55:05.416Z,13.80
2018-06-16T19:57:33.633Z,12.23
2018-06-16T20:00:01.783Z,10.40
2018-06-16T20:02:30.056Z,16.40
2018-06-16T20:04:59.164Z,18.50
2018-06-16T20:07:27.439Z,12.60
2018-06-16T20:09:55.621Z,10.13
2018-06-16T20:12:23.816Z,11.10
2018-06-16T20:14:52.141Z,12.47
2018-06-16T20:17:20.519Z,11.60
2018-06-16T20:19:48.577Z,16.23
2018-06-16T20:22:16.619Z,13.00
2018-06-16T20:24:44.761Z,13.27
2018-06-16T20:27:13.128Z,17.60
2018-06-16T20:29:41.967Z,12.93
2018-06-16T20:32:10.165Z,14.90
2018-06-16T20:34:38.351Z,12.87
2018-06-16T20:37:06.640Z,14.00
2018-06-16T20:39:34.800Z,12.23
2018-06-16T20:42:03.013Z,10.87
2018-06-16T20:44:31.297Z,11.87
2018-06-16T20:46:59.488Z,12.07
2018-06-16T20:49:27.673Z,14.50
2018-06-16T20:51:55.831Z,14.00
2018-06-16T20:54:24.087Z,13.00
2018-06-16T20:56:52.303Z,13.50
2018-06-16T20:59:20.500Z,12.67
2018-06-16T21:01:48.846Z,13.03
2018-06-16T21:04:17.018Z,11.43
2018-06-16T21:06:45.179Z,11.90
2018-06-16T21:09:13.456Z,13.37
2018-06-16T21:11:41.700Z,12.60
2018-06-16T21:14:09.848Z,13.90
2018-06-16T21:16:38.042Z,11.80
2018-06-16T21:19:06.802Z,14.03
2018-06-16T21:21:35.119Z,13.03
2018-06-16T21:24:03.405Z,12.97
2018-06-16T21:26:31.923Z,13.10
2018-06-16T21:29:00.224Z,13.50
2018-06-16T21:31:28.352Z,14.07
2018-06-16T21:33:56.571Z,15.13
2018-06-16T21:36:24.752Z,15.23
2018-06-16T21:38:53.432Z,12.73
2018-06-16T21:41:21.564Z,11.60
2018-06-16T21:43:49.762Z,13.00
2018-06-16T21:46:18.035Z,21.17
2018-06-16T21:48:46.171Z,12.43
2018-06-16T21:51:14.386Z,13.90
2018-06-16T21:53:42.686Z,13.63
2018-06-16T21:56:10.933Z,17.60
2018-06-16T21:58:39.136Z,12.30
2018-06-16T22:01:07.388Z,14.30
2018-06-16T22:03:35.595Z,18.50
2018-06-16T22:06:03.809Z,14.70
2018-06-16T22:08:32.972Z,11.40
2018-06-16T22:11:02.480Z,13.40
2018-06-16T22:13:30.847Z,15.80
2018-06-16T22:15:59.207Z,15.40
2018-06-16T22:18:27.768Z,13.03
2018-06-16T22:20:56.272Z,13.13
2018-06-16T22:23:24.485Z,15.50
2018-06-16T22:25:52.681Z,14.73
2018-06-16T22:28:20.883Z,17.00
2018-06-16T22:30:49.137Z,14.00
2018-06-16T22:33:17.359Z,15.37
2018-06-16T22:35:45.617Z,13.77
2018-06-16T22:38:13.837Z,15.50
2018-06-16T22:40:42.034Z,14.50
2018-06-16T22:43:10.283Z,16.03
2018-06-16T22:45:38.481Z,13.20
2018-06-16T22:48:06.646Z,17.27
2018-06-16T22:50:34.832Z,15.00
2018-06-16T22:53:03.021Z,12.90
2018-06-16T22:55:31.186Z,13.47
2018-06-16T22:57:59.368Z,14.33
2018-06-16T23:00:28.318Z,17.63
2018-06-16T23:02:57.730Z,15.37
2018-06-16T23:05:25.835Z,17.50
2018-06-16T23:07:54.095Z,14.20
2018-06-16T23:10:23.013Z,15.10
2018-06-16T23:12:51.176Z,16.10
2018-06-16T23:15:19.255Z,12.30
2018-06-16T23:17:47.455Z,12.87
2018-06-16T23:20:15.691Z,14.00
2018-06-16T23:22:43.832Z,19.47
2018-06-16T23:25:11.997Z,14.90
2018-06-16T23:27:40.094Z,13.00
2018-06-16T23:30:08.885Z,12.87
2018-06-16T23:32:37.074Z,15.53
2018-06-16T23:35:05.316Z,13.80
2018-06-16T23:37:33.505Z,14.73
2018-06-16T23:40:01.698Z,11.93
2018-06-16T23:42:29.920Z,15.40
2018-06-16T23:44:58.115Z,11.50
2018-06-16T23:47:26.355Z,13.50
2018-06-16T23:49:54.495Z,12.30
2018-06-16T23:52:22.614Z,12.77
2018-06-16T23:54:50.743Z,13.07
2018-06-16T23:57:18.966Z,15.67
2018-06-16T23:59:47.145Z,11.43
